sensor_id;sensor_type;location;lat;lon;timestamp;pressure;altitude;pressure_sealevel;temperature;humidity
11676;BME280;5894;42.768;23.404;2023-04-08T00:01:46;95731.91;;;6.23;100.00
11676;BME280;5894;42.768;23.404;2023-04-08T00:04:14;95743.41;;;6.27;100.00
11676;BME280;5894;42.768;23.404;2023-04-08T00:06:41;95747.34;;;6.24;100.00
11676;BME280;5894;42.768;23.404;2023-04-08T00:09:08;95745.81;;;6.13;100.00
11676;BME280;5894;42.768;23.404;2023-04-08T00:11:35;95752.94;;;6.08;100.00
11676;BME280;5894;42.768;23.404;2023-04-08T00:14:02;95749.53;;;6.07;100.00
11676;BME280;5894;42.768;23.404;2023-04-08T00:16:29;95759.72;;;6.09;100.00
11676;BME280;5894;42.768;23.404;2023-04-08T00:18:56;95757.13;;;6.09;100.00
11676;BME280;5894;42.768;23.404;2023-04-08T00:21:24;95740.63;;;6.08;100.00
11676;BME280;5894;42.768;23.404;2023-04-08T00:23:51;95753.97;;;6.12;100.00
11676;BME280;5894;42.768;23.404;2023-04-08T00:26:18;95739.31;;;6.06;100.00
11676;BME280;5894;42.768;23.404;2023-04-08T00:28:45;95753.41;;;6.15;100.00
11676;BME280;5894;42.768;23.404;2023-04-08T00:31:12;95727.31;;;5.95;100.00
11676;BME280;5894;42.768;23.404;2023-04-08T00:33:39;95734.59;;;6.08;100.00
11676;BME280;5894;42.768;23.404;2023-04-08T00:36:06;95706.13;;;5.86;100.00
11676;BME280;5894;42.768;23.404;2023-04-08T00:38:34;95750.31;;;6.08;100.00
11676;BME280;5894;42.768;23.404;2023-04-08T00:41:01;95747.16;;;6.06;100.00
11676;BME280;5894;42.768;23.404;2023-04-08T00:43:27;95740.69;;;5.88;100.00
11676;BME280;5894;42.768;23.404;2023-04-08T00:45:54;95696.78;;;5.60;100.00
11676;BME280;5894;42.768;23.404;2023-04-08T00:48:21;95729.19;;;5.79;100.00
11676;BME280;5894;42.768;23.404;2023-04-08T00:50:48;95742.25;;;5.89;100.00
11676;BME280;5894;42.768;23.404;2023-04-08T00:53:17;95707.50;;;5.63;100.00
11676;BME280;5894;42.768;23.404;2023-04-08T00:55:46;95767.59;;;6.04;100.00
11676;BME280;5894;42.768;23.404;2023-04-08T00:58:13;95768.94;;;6.01;100.00
11676;BME280;5894;42.768;23.404;2023-04-08T01:00:44;95670.91;;;5.43;100.00
11676;BME280;5894;42.768;23.404;2023-04-08T01:03:15;95759.72;;;6.09;100.00
11676;BME280;5894;42.768;23.404;2023-04-08T01:05:52;95765.22;;;6.12;100.00
11676;BME280;5894;42.768;23.404;2023-04-08T01:08:26;95768.59;;;6.13;100.00
11676;BME280;5894;42.768;23.404;2023-04-08T01:11:00;95740.63;;;6.03;100.00
11676;BME280;5894;42.768;23.404;2023-04-08T01:13:30;95722.84;;;5.95;100.00
11676;BME280;5894;42.768;23.404;2023-04-08T01:16:00;95716.06;;;5.84;100.00
11676;BME280;5894;42.768;23.404;2023-04-08T01:18:28;95764.19;;;6.08;100.00
11676;BME280;5894;42.768;23.404;2023-04-08T01:20:57;95720.31;;;5.65;100.00
11676;BME280;5894;42.768;23.404;2023-04-08T01:23:30;95762.66;;;5.92;100.00
11676;BME280;5894;42.768;23.404;2023-04-08T01:26:00;95770.78;;;5.75;100.00
11676;BME280;5894;42.768;23.404;2023-04-08T01:28:28;95773.41;;;5.65;100.00
11676;BME280;5894;42.768;23.404;2023-04-08T01:30:59;95758.78;;;5.69;100.00
11676;BME280;5894;42.768;23.404;2023-04-08T01:33:27;95767.13;;;5.61;100.00
11676;BME280;5894;42.768;23.404;2023-04-08T01:35:55;95704.69;;;5.34;100.00
11676;BME280;5894;42.768;23.404;2023-04-08T01:38:23;95767.91;;;5.72;100.00
11676;BME280;5894;42.768;23.404;2023-04-08T01:40:52;95762.41;;;5.78;100.00
11676;BME280;5894;42.768;23.404;2023-04-08T01:43:23;95762.66;;;5.87;100.00
11676;BME280;5894;42.768;23.404;2023-04-08T01:45:51;95767.66;;;5.88;100.00
11676;BME280;5894;42.768;23.404;2023-04-08T01:48:23;95762.91;;;5.85;100.00
11676;BME280;5894;42.768;23.404;2023-04-08T01:50:50;95764.47;;;5.81;100.00
11676;BME280;5894;42.768;23.404;2023-04-08T01:53:18;95743.59;;;5.66;100.00
11676;BME280;5894;42.768;23.404;2023-04-08T01:55:45;95769.75;;;5.76;100.00
11676;BME280;5894;42.768;23.404;2023-04-08T01:58:17;95709.63;;;5.46;100.00
11676;BME280;5894;42.768;23.404;2023-04-08T02:00:47;95756.13;;;5.74;100.00
11676;BME280;5894;42.768;23.404;2023-04-08T02:03:16;95723.50;;;5.46;100.00
11676;BME280;5894;42.768;23.404;2023-04-08T02:05:45;95783.34;;;5.88;100.00
11676;BME280;5894;42.768;23.404;2023-04-08T02:08:12;95787.53;;;5.89;100.00
11676;BME280;5894;42.768;23.404;2023-04-08T02:10:39;95811.06;;;5.84;100.00
11676;BME280;5894;42.768;23.404;2023-04-08T02:13:06;95788.56;;;5.94;100.00
11676;BME280;5894;42.768;23.404;2023-04-08T02:15:35;95717.47;;;5.41;100.00
11676;BME280;5894;42.768;23.404;2023-04-08T02:18:10;95785.41;;;5.86;100.00
11676;BME280;5894;42.768;23.404;2023-04-08T02:20:42;95792.22;;;5.82;100.00
11676;BME280;5894;42.768;23.404;2023-04-08T02:23:13;95803.25;;;5.89;100.00
11676;BME280;5894;42.768;23.404;2023-04-08T02:25:43;95790.66;;;5.97;100.00
11676;BME280;5894;42.768;23.404;2023-04-08T02:28:11;95770.78;;;5.75;100.00
11676;BME280;5894;42.768;23.404;2023-04-08T02:30:41;95794.34;;;5.91;100.00
11676;BME280;5894;42.768;23.404;2023-04-08T02:33:10;95728.97;;;5.55;100.00
11676;BME280;5894;42.768;23.404;2023-04-08T02:35:39;95791.19;;;5.99;100.00
11676;BME280;5894;42.768;23.404;2023-04-08T02:38:08;95797.72;;;5.96;100.00
11676;BME280;5894;42.768;23.404;2023-04-08T02:40:35;95702.56;;;5.46;100.00
11676;BME280;5894;42.768;23.404;2023-04-08T02:43:02;95796.91;;;6.11;100.00
11676;BME280;5894;42.768;23.404;2023-04-08T02:45:31;95798.19;;;6.13;100.00
11676;BME280;5894;42.768;23.404;2023-04-08T02:47:59;95711.44;;;5.56;100.00
11676;BME280;5894;42.768;23.404;2023-04-08T02:50:27;95782.28;;;6.00;100.00
11676;BME280;5894;42.768;23.404;2023-04-08T02:52:54;95787.75;;;6.08;100.00
11676;BME280;5894;42.768;23.404;2023-04-08T02:55:21;95775.47;;;5.94;100.00
11676;BME280;5894;42.768;23.404;2023-04-08T02:57:48;95793.81;;;5.99;100.00
11676;BME280;5894;42.768;23.404;2023-04-08T03:00:15;95789.09;;;6.01;100.00
11676;BME280;5894;42.768;23.404;2023-04-08T03:02:42;95792.19;;;6.03;100.00
11676;BME280;5894;42.768;23.404;2023-04-08T03:05:10;95791.97;;;5.94;100.00
11676;BME280;5894;42.768;23.404;2023-04-08T03:07:38;95781.25;;;5.75;100.00
11676;BME280;5894;42.768;23.404;2023-04-08T03:10:06;95776.31;;;5.59;100.00
11676;BME280;5894;42.768;23.404;2023-04-08T03:12:33;95793.06;;;5.68;100.00
11676;BME280;5894;42.768;23.404;2023-04-08T03:15:00;95771.88;;;5.49;100.00
11676;BME280;5894;42.768;23.404;2023-04-08T03:17:28;95794.38;;;5.70;100.00
11676;BME280;5894;42.768;23.404;2023-04-08T03:19:56;95791.19;;;5.73;100.00
11676;BME280;5894;42.768;23.404;2023-04-08T03:22:23;95783.09;;;5.75;100.00
11676;BME280;5894;42.768;23.404;2023-04-08T03:24:51;95785.19;;;5.78;100.00
11676;BME280;5894;42.768;23.404;2023-04-08T03:27:18;95772.38;;;5.66;100.00
11676;BME280;5894;42.768;23.404;2023-04-08T03:29:45;95783.09;;;5.75;100.00
11676;BME280;5894;42.768;23.404;2023-04-08T03:32:12;95792.50;;;5.81;100.00
11676;BME280;5894;42.768;23.404;2023-04-08T03:34:39;95789.59;;;5.82;100.00
11676;BME280;5894;42.768;23.404;2023-04-08T03:37:06;95786.75;;;5.79;100.00
11676;BME280;5894;42.768;23.404;2023-04-08T03:39:33;95785.97;;;5.78;100.00
11676;BME280;5894;42.768;23.404;2023-04-08T03:42:01;95739.97;;;5.47;100.00
11676;BME280;5894;42.768;23.404;2023-04-08T03:44:28;95732.38;;;5.45;100.00
11676;BME280;5894;42.768;23.404;2023-04-08T03:46:55;95774.72;;;5.73;100.00
11676;BME280;5894;42.768;23.404;2023-04-08T03:49:21;95797.44;;;5.82;100.00
11676;BME280;5894;42.768;23.404;2023-04-08T03:51:49;95792.00;;;5.69;100.00
11676;BME280;5894;42.768;23.404;2023-04-08T03:54:16;95755.66;;;5.47;100.00
11676;BME280;5894;42.768;23.404;2023-04-08T03:56:43;95799.28;;;5.82;100.00
11676;BME280;5894;42.768;23.404;2023-04-08T03:59:11;95785.44;;;5.71;100.00
11676;BME280;5894;42.768;23.404;2023-04-08T04:01:38;95761.94;;;5.56;100.00
11676;BME280;5894;42.768;23.404;2023-04-08T04:04:05;95734.75;;;5.42;100.00
11676;BME280;5894;42.768;23.404;2023-04-08T04:06:32;95791.44;;;5.92;100.00
11676;BME280;5894;42.768;23.404;2023-04-08T04:08:58;95788.81;;;5.87;100.00
11676;BME280;5894;42.768;23.404;2023-04-08T04:11:25;95791.44;;;5.82;100.00
11676;BME280;5894;42.768;23.404;2023-04-08T04:13:52;95789.91;;;5.91;100.00
11676;BME280;5894;42.768;23.404;2023-04-08T04:16:20;95791.19;;;5.83;100.00
11676;BME280;5894;42.768;23.404;2023-04-08T04:18:48;95780.97;;;5.87;100.00
11676;BME280;5894;42.768;23.404;2023-04-08T04:21:14;95790.13;;;5.84;100.00
11676;BME280;5894;42.768;23.404;2023-04-08T04:23:41;95778.09;;;5.73;100.00
11676;BME280;5894;42.768;23.404;2023-04-08T04:26:08;95807.13;;;5.82;100.00
11676;BME280;5894;42.768;23.404;2023-04-08T04:28:35;95742.88;;;5.35;100.00
11676;BME280;5894;42.768;23.404;2023-04-08T04:31:02;95757.78;;;5.35;100.00
11676;BME280;5894;42.768;23.404;2023-04-08T04:33:31;95807.94;;;5.77;100.00
11676;BME280;5894;42.768;23.404;2023-04-08T04:35:57;95802.47;;;5.69;100.00
11676;BME280;5894;42.768;23.404;2023-04-08T04:38:24;95812.13;;;5.78;100.00
11676;BME280;5894;42.768;23.404;2023-04-08T04:40:51;95806.63;;;5.75;100.00
11676;BME280;5894;42.768;23.404;2023-04-08T04:43:18;95815.53;;;5.79;100.00
11676;BME280;5894;42.768;23.404;2023-04-08T04:45:45;95806.66;;;5.70;100.00
11676;BME280;5894;42.768;23.404;2023-04-08T04:48:12;95806.91;;;5.68;100.00
11676;BME280;5894;42.768;23.404;2023-04-08T04:50:40;95816.06;;;5.71;100.00
11676;BME280;5894;42.768;23.404;2023-04-08T04:53:07;95781.53;;;5.53;100.00
11676;BME280;5894;42.768;23.404;2023-04-08T04:55:33;95801.69;;;5.63;100.00
11676;BME280;5894;42.768;23.404;2023-04-08T04:58:00;95742.34;;;5.28;100.00
11676;BME280;5894;42.768;23.404;2023-04-08T05:00:27;95813.72;;;5.79;100.00
11676;BME280;5894;42.768;23.404;2023-04-08T05:02:54;95795.13;;;5.81;100.00
11676;BME280;5894;42.768;23.404;2023-04-08T05:05:21;95708.88;;;5.25;100.00
11676;BME280;5894;42.768;23.404;2023-04-08T05:07:49;95799.56;;;5.85;100.00
11676;BME280;5894;42.768;23.404;2023-04-08T05:10:16;95811.63;;;5.92;100.00
11676;BME280;5894;42.768;23.404;2023-04-08T05:12:43;95806.88;;;5.99;100.00
11676;BME280;5894;42.768;23.404;2023-04-08T05:15:10;95819.47;;;6.02;100.00
11676;BME280;5894;42.768;23.404;2023-04-08T05:17:37;95806.88;;;6.09;100.00
11676;BME280;5894;42.768;23.404;2023-04-08T05:20:04;95767.63;;;5.94;100.00
11676;BME280;5894;42.768;23.404;2023-04-08T05:22:31;95809.16;;;6.31;100.00
11676;BME280;5894;42.768;23.404;2023-04-08T05:25:00;95802.81;;;6.42;100.00
11676;BME280;5894;42.768;23.404;2023-04-08T05:27:27;95800.41;;;6.50;100.00
11676;BME280;5894;42.768;23.404;2023-04-08T05:29:53;95806.91;;;6.63;100.00
11676;BME280;5894;42.768;23.404;2023-04-08T05:32:20;95805.81;;;6.69;100.00
11676;BME280;5894;42.768;23.404;2023-04-08T05:34:47;95807.06;;;6.82;100.00
11676;BME280;5894;42.768;23.404;2023-04-08T05:37:14;95806.22;;;6.91;100.00
11676;BME280;5894;42.768;23.404;2023-04-08T05:39:41;95807.50;;;6.99;100.00
11676;BME280;5894;42.768;23.404;2023-04-08T05:42:09;95812.41;;;7.11;100.00
11676;BME280;5894;42.768;23.404;2023-04-08T05:44:37;95810.22;;;7.23;100.00
11676;BME280;5894;42.768;23.404;2023-04-08T05:47:05;95811.22;;;7.27;100.00
11676;BME280;5894;42.768;23.404;2023-04-08T05:49:32;95819.34;;;7.30;100.00
11676;BME280;5894;42.768;23.404;2023-04-08T05:52:00;95814.28;;;7.39;100.00
11676;BME280;5894;42.768;23.404;2023-04-08T05:54:26;95814.19;;;7.49;100.00
11676;BME280;5894;42.768;23.404;2023-04-08T05:56:53;95815.16;;;7.58;100.00
11676;BME280;5894;42.768;23.404;2023-04-08T05:59:21;95806.53;;;7.58;100.00
11676;BME280;5894;42.768;23.404;2023-04-08T06:01:48;95815.06;;;7.73;100.00
11676;BME280;5894;42.768;23.404;2023-04-08T06:04:15;95811.09;;;7.76;100.00
11676;BME280;5894;42.768;23.404;2023-04-08T06:06:42;95812.34;;;7.84;100.00
11676;BME280;5894;42.768;23.404;2023-04-08T06:09:09;95803.03;;;7.96;100.00
11676;BME280;5894;42.768;23.404;2023-04-08T06:11:36;95810.00;;;8.06;100.00
11676;BME280;5894;42.768;23.404;2023-04-08T06:14:03;95801.78;;;8.13;100.00
11676;BME280;5894;42.768;23.404;2023-04-08T06:16:31;95804.66;;;8.16;100.00
11676;BME280;5894;42.768;23.404;2023-04-08T06:18:58;95785.09;;;8.03;100.00
11676;BME280;5894;42.768;23.404;2023-04-08T06:21:25;95797.28;;;8.18;100.00
11676;BME280;5894;42.768;23.404;2023-04-08T06:23:52;95809.78;;;8.26;100.00
11676;BME280;5894;42.768;23.404;2023-04-08T06:26:19;95797.47;;;8.22;100.00
11676;BME280;5894;42.768;23.404;2023-04-08T06:28:48;95808.69;;;8.08;100.00
11676;BME280;5894;42.768;23.404;2023-04-08T06:31:15;95807.00;;;8.18;100.00
11676;BME280;5894;42.768;23.404;2023-04-08T06:33:43;95804.81;;;8.01;100.00
11676;BME280;5894;42.768;23.404;2023-04-08T06:36:10;95800.28;;;8.06;100.00
11676;BME280;5894;42.768;23.404;2023-04-08T06:38:37;95812.16;;;8.28;100.00
11676;BME280;5894;42.768;23.404;2023-04-08T06:41:05;95806.53;;;8.39;100.00
11676;BME280;5894;42.768;23.404;2023-04-08T06:43:33;95809.31;;;8.48;100.00
11676;BME280;5894;42.768;23.404;2023-04-08T06:46:01;95808.81;;;8.46;100.00
11676;BME280;5894;42.768;23.404;2023-04-08T06:48:27;95801.03;;;8.36;100.00
11676;BME280;5894;42.768;23.404;2023-04-08T06:50:56;95802.91;;;8.54;100.00
11676;BME280;5894;42.768;23.404;2023-04-08T06:53:23;95817.19;;;8.48;100.00
11676;BME280;5894;42.768;23.404;2023-04-08T06:55:50;95815.13;;;8.45;100.00
11676;BME280;5894;42.768;23.404;2023-04-08T06:58:17;95801.97;;;8.45;100.00
11676;BME280;5894;42.768;23.404;2023-04-08T07:00:44;95811.03;;;8.58;100.00
11676;BME280;5894;42.768;23.404;2023-04-08T07:03:11;95797.59;;;8.40;100.00
11676;BME280;5894;42.768;23.404;2023-04-08T07:05:38;95814.94;;;8.60;100.00
11676;BME280;5894;42.768;23.404;2023-04-08T07:08:08;95810.91;;;8.68;100.00
11676;BME280;5894;42.768;23.404;2023-04-08T07:10:35;95816.78;;;8.60;100.00
11676;BME280;5894;42.768;23.404;2023-04-08T07:13:03;95825.78;;;8.54;100.00
11676;BME280;5894;42.768;23.404;2023-04-08T07:15:30;95823.44;;;8.52;100.00
11676;BME280;5894;42.768;23.404;2023-04-08T07:17:56;95825.75;;;8.59;100.00
11676;BME280;5894;42.768;23.404;2023-04-08T07:20:24;95824.44;;;8.56;100.00
11676;BME280;5894;42.768;23.404;2023-04-08T07:22:51;95821.56;;;8.58;100.00
11676;BME280;5894;42.768;23.404;2023-04-08T07:25:19;95824.31;;;8.66;100.00
11676;BME280;5894;42.768;23.404;2023-04-08T07:27:46;95822.75;;;8.65;100.00
11676;BME280;5894;42.768;23.404;2023-04-08T07:30:13;95819.56;;;8.68;100.00
11676;BME280;5894;42.768;23.404;2023-04-08T07:32:40;95826.41;;;8.69;100.00
11676;BME280;5894;42.768;23.404;2023-04-08T07:35:07;95824.84;;;8.68;100.00
11676;BME280;5894;42.768;23.404;2023-04-08T07:37:34;95832.66;;;8.73;100.00
11676;BME280;5894;42.768;23.404;2023-04-08T07:40:00;95830.19;;;8.82;100.00
11676;BME280;5894;42.768;23.404;2023-04-08T07:42:29;95844.56;;;8.90;100.00
11676;BME280;5894;42.768;23.404;2023-04-08T07:44:56;95843.22;;;8.92;100.00
11676;BME280;5894;42.768;23.404;2023-04-08T07:47:23;95834.44;;;8.97;100.00
11676;BME280;5894;42.768;23.404;2023-04-08T07:49:49;95834.53;;;8.92;100.00
11676;BME280;5894;42.768;23.404;2023-04-08T07:52:16;95811.47;;;8.83;100.00
11676;BME280;5894;42.768;23.404;2023-04-08T07:54:43;95850.31;;;9.10;100.00
11676;BME280;5894;42.768;23.404;2023-04-08T07:57:10;95851.53;;;9.18;100.00
11676;BME280;5894;42.768;23.404;2023-04-08T07:59:38;95855.63;;;9.24;100.00
11676;BME280;5894;42.768;23.404;2023-04-08T08:02:05;95863.47;;;9.29;100.00
11676;BME280;5894;42.768;23.404;2023-04-08T08:04:32;95859.22;;;9.33;100.00
11676;BME280;5894;42.768;23.404;2023-04-08T08:06:59;95817.09;;;8.96;100.00
11676;BME280;5894;42.768;23.404;2023-04-08T08:09:25;95840.50;;;9.16;100.00
11676;BME280;5894;42.768;23.404;2023-04-08T08:11:52;95810.13;;;9.05;100.00
11676;BME280;5894;42.768;23.404;2023-04-08T08:14:19;95802.31;;;9.00;100.00
11676;BME280;5894;42.768;23.404;2023-04-08T08:16:47;95853.00;;;9.43;100.00
11676;BME280;5894;42.768;23.404;2023-04-08T08:19:15;95862.16;;;9.45;100.00
11676;BME280;5894;42.768;23.404;2023-04-08T08:21:42;95867.66;;;9.49;100.00
11676;BME280;5894;42.768;23.404;2023-04-08T08:24:08;95868.38;;;9.54;100.00
11676;BME280;5894;42.768;23.404;2023-04-08T08:26:35;95855.56;;;9.48;99.74
11676;BME280;5894;42.768;23.404;2023-04-08T08:29:03;95866.84;;;9.67;100.00
11676;BME280;5894;42.768;23.404;2023-04-08T08:31:30;95872.53;;;9.74;100.00
11676;BME280;5894;42.768;23.404;2023-04-08T08:33:59;95850.22;;;9.53;100.00
11676;BME280;5894;42.768;23.404;2023-04-08T08:36:25;95878.34;;;9.90;100.00
11676;BME280;5894;42.768;23.404;2023-04-08T08:38:53;95877.38;;;10.00;97.74
11676;BME280;5894;42.768;23.404;2023-04-08T08:41:20;95829.50;;;9.65;98.42
11676;BME280;5894;42.768;23.404;2023-04-08T08:43:47;95826.38;;;9.77;99.71
11676;BME280;5894;42.768;23.404;2023-04-08T08:46:16;95874.19;;;10.03;99.88
11676;BME280;5894;42.768;23.404;2023-04-08T08:48:43;95871.94;;;10.10;98.31
11676;BME280;5894;42.768;23.404;2023-04-08T08:51:12;95873.28;;;10.26;99.11
11676;BME280;5894;42.768;23.404;2023-04-08T08:53:39;95868.16;;;10.16;98.46
11676;BME280;5894;42.768;23.404;2023-04-08T08:56:09;95875.22;;;10.34;97.11
11676;BME280;5894;42.768;23.404;2023-04-08T08:58:37;95874.25;;;10.44;99.25
11676;BME280;5894;42.768;23.404;2023-04-08T09:04:09;95836.53;;;10.16;99.54
11676;BME280;5894;42.768;23.404;2023-04-08T09:06:37;95872.97;;;10.41;100.00
11676;BME280;5894;42.768;23.404;2023-04-08T09:09:05;95881.19;;;10.40;99.41
11676;BME280;5894;42.768;23.404;2023-04-08T09:11:36;95846.13;;;10.25;99.12
11676;BME280;5894;42.768;23.404;2023-04-08T09:14:04;95869.78;;;10.44;98.61
11676;BME280;5894;42.768;23.404;2023-04-08T09:16:32;95869.00;;;10.44;99.34
11676;BME280;5894;42.768;23.404;2023-04-08T09:19:08;95884.59;;;10.40;100.00
11676;BME280;5894;42.768;23.404;2023-04-08T09:21:37;95880.22;;;10.49;100.00
11676;BME280;5894;42.768;23.404;2023-04-08T09:24:05;95876.78;;;10.49;99.60
11676;BME280;5894;42.768;23.404;2023-04-08T09:26:33;95875.25;;;10.48;99.01
11676;BME280;5894;42.768;23.404;2023-04-08T09:29:03;95874.66;;;10.51;99.88
11676;BME280;5894;42.768;23.404;2023-04-08T09:31:31;95873.47;;;10.43;98.86
11676;BME280;5894;42.768;23.404;2023-04-08T09:33:59;95839.78;;;10.40;99.48
11676;BME280;5894;42.768;23.404;2023-04-08T09:36:27;95867.91;;;10.45;99.72
11676;BME280;5894;42.768;23.404;2023-04-08T09:38:55;95867.34;;;10.48;97.62
11676;BME280;5894;42.768;23.404;2023-04-08T09:41:24;95859.69;;;10.60;96.94
11676;BME280;5894;42.768;23.404;2023-04-08T09:43:54;95847.59;;;10.59;97.05
11676;BME280;5894;42.768;23.404;2023-04-08T09:46:25;95859.91;;;10.63;96.71
11676;BME280;5894;42.768;23.404;2023-04-08T09:49:00;95852.28;;;10.76;99.34
11676;BME280;5894;42.768;23.404;2023-04-08T09:51:32;95832.25;;;10.75;95.50
11676;BME280;5894;42.768;23.404;2023-04-08T09:54:11;95849.03;;;10.92;95.03
11676;BME280;5894;42.768;23.404;2023-04-08T09:56:42;95742.72;;;10.42;94.44
11676;BME280;5894;42.768;23.404;2023-04-08T09:59:13;95844.94;;;11.22;92.89
11676;BME280;5894;42.768;23.404;2023-04-08T10:01:45;95839.31;;;11.15;89.83
11676;BME280;5894;42.768;23.404;2023-04-08T10:04:15;95840.69;;;11.13;87.56
11676;BME280;5894;42.768;23.404;2023-04-08T10:06:50;95831.50;;;11.10;90.08
11676;BME280;5894;42.768;23.404;2023-04-08T10:09:20;95821.63;;;11.02;95.42
11676;BME280;5894;42.768;23.404;2023-04-08T10:11:49;95821.03;;;11.19;94.29
11676;BME280;5894;42.768;23.404;2023-04-08T10:14:16;95823.72;;;11.27;88.53
11676;BME280;5894;42.768;23.404;2023-04-08T10:16:43;95797.97;;;11.33;84.02
11676;BME280;5894;42.768;23.404;2023-04-08T10:19:35;95818.16;;;11.51;85.75
11676;BME280;5894;42.768;23.404;2023-04-08T10:25:30;95813.72;;;11.60;85.97
11676;BME280;5894;42.768;23.404;2023-04-08T10:27:57;95802.28;;;11.73;79.51
11676;BME280;5894;42.768;23.404;2023-04-08T10:30:48;95778.06;;;11.49;72.76
11676;BME280;5894;42.768;23.404;2023-04-08T10:33:16;95796.06;;;11.69;81.92
11676;BME280;5894;42.768;23.404;2023-04-08T10:35:50;95796.66;;;11.66;78.38
11676;BME280;5894;42.768;23.404;2023-04-08T10:38:18;95791.63;;;11.79;77.17
11676;BME280;5894;42.768;23.404;2023-04-08T10:40:47;95794.50;;;11.91;75.24
11676;BME280;5894;42.768;23.404;2023-04-08T10:43:16;95796.09;;;12.00;72.62
11676;BME280;5894;42.768;23.404;2023-04-08T10:45:43;95794.34;;;11.96;76.46
11676;BME280;5894;42.768;23.404;2023-04-08T10:48:12;95792.97;;;11.98;78.08
11676;BME280;5894;42.768;23.404;2023-04-08T10:50:40;95787.13;;;12.10;73.50
11676;BME280;5894;42.768;23.404;2023-04-08T10:53:06;95790.72;;;12.14;65.32
11676;BME280;5894;42.768;23.404;2023-04-08T10:55:33;95753.13;;;11.86;70.50
11676;BME280;5894;42.768;23.404;2023-04-08T10:58:09;95791.88;;;12.30;75.74
11676;BME280;5894;42.768;23.404;2023-04-08T11:00:38;95792.84;;;12.43;74.28
11676;BME280;5894;42.768;23.404;2023-04-08T11:03:07;95707.88;;;11.88;73.40
11676;BME280;5894;42.768;23.404;2023-04-08T11:05:34;95784.13;;;12.42;70.73
11676;BME280;5894;42.768;23.404;2023-04-08T11:08:02;95767.50;;;12.59;71.09
11676;BME280;5894;42.768;23.404;2023-04-08T11:10:30;95768.94;;;12.74;70.86
11676;BME280;5894;42.768;23.404;2023-04-08T11:13:02;95738.13;;;12.78;68.04
11676;BME280;5894;42.768;23.404;2023-04-08T11:15:30;95758.53;;;12.95;68.20
11676;BME280;5894;42.768;23.404;2023-04-08T11:17:57;95754.63;;;13.01;66.11
11676;BME280;5894;42.768;23.404;2023-04-08T11:20:25;95750.28;;;13.13;66.72
11676;BME280;5894;42.768;23.404;2023-04-08T11:22:52;95745.00;;;13.22;67.61
11676;BME280;5894;42.768;23.404;2023-04-08T11:25:18;95747.03;;;13.34;68.80
11676;BME280;5894;42.768;23.404;2023-04-08T11:27:46;95749.66;;;13.34;63.40
11676;BME280;5894;42.768;23.404;2023-04-08T11:30:13;95745.78;;;13.22;59.91
11676;BME280;5894;42.768;23.404;2023-04-08T11:32:41;95737.84;;;13.22;64.77
11676;BME280;5894;42.768;23.404;2023-04-08T11:35:08;95740.19;;;13.15;66.65
11676;BME280;5894;42.768;23.404;2023-04-08T11:37:36;95737.03;;;13.13;61.68
11676;BME280;5894;42.768;23.404;2023-04-08T11:40:08;95730.69;;;13.14;64.26
11676;BME280;5894;42.768;23.404;2023-04-08T11:42:35;95726.63;;;13.26;61.65
11676;BME280;5894;42.768;23.404;2023-04-08T11:45:08;95718.94;;;13.41;63.94
11676;BME280;5894;42.768;23.404;2023-04-08T11:47:36;95724.56;;;13.48;62.43
11676;BME280;5894;42.768;23.404;2023-04-08T11:50:05;95724.88;;;13.47;60.64
11676;BME280;5894;42.768;23.404;2023-04-08T11:52:46;95708.22;;;13.46;60.06
11676;BME280;5894;42.768;23.404;2023-04-08T11:55:22;95717.38;;;13.57;61.65
11676;BME280;5894;42.768;23.404;2023-04-08T11:57:49;95713.16;;;13.56;61.22
11676;BME280;5894;42.768;23.404;2023-04-08T12:00:17;95681.72;;;13.46;62.13
11676;BME280;5894;42.768;23.404;2023-04-08T12:02:44;95703.28;;;13.74;60.93
11676;BME280;5894;42.768;23.404;2023-04-08T12:05:13;95711.22;;;13.74;58.88
11676;BME280;5894;42.768;23.404;2023-04-08T12:07:40;95700.78;;;13.78;58.37
11676;BME280;5894;42.768;23.404;2023-04-08T12:10:07;95705.59;;;13.84;59.50
11676;BME280;5894;42.768;23.404;2023-04-08T12:12:35;95689.88;;;13.79;55.71
11676;BME280;5894;42.768;23.404;2023-04-08T12:15:01;95615.56;;;13.20;56.84
11676;BME280;5894;42.768;23.404;2023-04-08T12:17:28;95700.91;;;13.81;53.07
11676;BME280;5894;42.768;23.404;2023-04-08T12:19:55;95708.66;;;13.95;55.36
11676;BME280;5894;42.768;23.404;2023-04-08T12:22:23;95704.97;;;13.87;55.70
11676;BME280;5894;42.768;23.404;2023-04-08T12:24:50;95703.91;;;13.80;55.84
11676;BME280;5894;42.768;23.404;2023-04-08T12:27:17;95692.84;;;13.78;57.26
11676;BME280;5894;42.768;23.404;2023-04-08T12:29:44;95689.72;;;13.76;57.00
11676;BME280;5894;42.768;23.404;2023-04-08T12:32:11;95705.00;;;13.79;60.62
11676;BME280;5894;42.768;23.404;2023-04-08T12:34:39;95695.66;;;13.73;60.64
11676;BME280;5894;42.768;23.404;2023-04-08T12:37:06;95697.09;;;13.62;60.40
11676;BME280;5894;42.768;23.404;2023-04-08T12:39:34;95692.28;;;13.55;62.44
11676;BME280;5894;42.768;23.404;2023-04-08T12:42:01;95684.81;;;13.40;59.14
11676;BME280;5894;42.768;23.404;2023-04-08T12:44:27;95603.63;;;12.80;61.05
11676;BME280;5894;42.768;23.404;2023-04-08T12:46:54;95684.38;;;13.29;61.57
11676;BME280;5894;42.768;23.404;2023-04-08T12:49:22;95686.72;;;13.31;61.38
11676;BME280;5894;42.768;23.404;2023-04-08T12:51:49;95684.53;;;13.33;62.60
11676;BME280;5894;42.768;23.404;2023-04-08T12:54:16;95690.94;;;13.32;62.12
11676;BME280;5894;42.768;23.404;2023-04-08T12:56:44;95685.63;;;13.32;61.55
11676;BME280;5894;42.768;23.404;2023-04-08T12:59:13;95677.41;;;13.16;60.41
11676;BME280;5894;42.768;23.404;2023-04-08T13:01:40;95612.03;;;12.47;61.43
11676;BME280;5894;42.768;23.404;2023-04-08T13:04:07;95683.16;;;12.92;63.12
11676;BME280;5894;42.768;23.404;2023-04-08T13:06:34;95682.72;;;12.81;64.39
11676;BME280;5894;42.768;23.404;2023-04-08T13:09:01;95670.09;;;12.70;64.22
11676;BME280;5894;42.768;23.404;2023-04-08T13:11:28;95678.19;;;12.56;65.29